Time;durP1;ratioP1;P1;durP2;ratioP2;P2;SDS_P1;SDS_P2;PMS_P1;PMS_P2;Temp;Humidity;BMP_temperature;BMP_pressure;BME280_temperature;BME280_humidity;BME280_pressure;Samples;Min_cycle;Max_cycle;Signal;HPM_P1;HPM_P2
2022/04/06 00:01:30;;;;;;;16.57;7.73;;;10.20;89.90;;;;;;5017004;28;20457;-80
2022/04/06 00:03:58;;;;;;;15.63;6.50;;;10.20;90.00;;;;;;5015880;28;20477;-80
2022/04/06 00:06:25;;;;;;;16.23;7.27;;;10.30;89.30;;;;;;5017489;28;20461;-81
2022/04/06 00:08:51;;;;;;;11.93;7.17;;;10.20;89.70;;;;;;5015831;28;20817;-80
2022/04/06 00:11:18;;;;;;;17.40;7.17;;;10.30;89.80;;;;;;5016918;28;20476;-80
2022/04/06 00:13:45;;;;;;;20.03;6.87;;;10.30;90.10;;;;;;5016273;28;20473;-81
2022/04/06 00:16:12;;;;;;;13.93;6.90;;;10.10;90.10;;;;;;5016415;28;20456;-80
2022/04/06 00:18:38;;;;;;;16.30;7.60;;;10.30;89.90;;;;;;5015989;28;20460;-80
2022/04/06 00:21:06;;;;;;;16.60;8.30;;;10.20;90.10;;;;;;5016259;28;20938;-80
2022/04/06 00:23:33;;;;;;;16.37;7.80;;;10.20;90.10;;;;;;5016525;28;20485;-80
2022/04/06 00:26:01;;;;;;;13.90;6.90;;;10.10;89.60;;;;;;5016640;28;20461;-80
2022/04/06 00:28:28;;;;;;;14.03;7.77;;;10.10;90.10;;;;;;5016584;28;20457;-81
2022/04/06 00:30:54;;;;;;;13.50;6.90;;;10.10;90.10;;;;;;5016599;28;20481;-79
2022/04/06 00:33:21;;;;;;;14.90;7.07;;;10.10;90.10;;;;;;5016585;28;20556;-80
2022/04/06 00:35:48;;;;;;;16.77;7.70;;;10.10;89.30;;;;;;5016726;28;20461;-81
2022/04/06 00:38:16;;;;;;;24.63;8.67;;;10.00;90.30;;;;;;5016148;28;20459;-79
2022/04/06 00:40:43;;;;;;;13.43;6.97;;;10.00;90.30;;;;;;5016408;28;20829;-80
2022/04/06 00:43:12;;;;;;;19.43;8.27;;;9.90;90.60;;;;;;5015551;28;20473;-80
2022/04/06 00:45:39;;;;;;;14.17;7.60;;;10.00;90.00;;;;;;5016374;28;20823;-80
2022/04/06 00:48:07;;;;;;;14.97;6.53;;;10.00;90.30;;;;;;5015567;28;20460;-79
2022/04/06 00:50:38;;;;;;;11.57;6.57;;;9.90;90.50;;;;;;5015384;28;20947;-80
2022/04/06 00:53:06;;;;;;;20.73;7.67;;;10.00;89.80;;;;;;5015546;28;20473;-80
2022/04/06 00:55:36;;;;;;;16.30;5.87;;;10.00;89.10;;;;;;5016456;28;20460;-82
2022/04/06 00:58:07;;;;;;;17.40;7.20;;;10.00;89.50;;;;;;5015861;28;20521;-80
2022/04/06 01:00:34;;;;;;;10.13;6.50;;;10.00;90.00;;;;;;5016058;28;20444;-80
2022/04/06 01:03:01;;;;;;;14.27;5.67;;;10.00;89.60;;;;;;5015750;28;20495;-80
2022/04/06 01:05:28;;;;;;;12.07;5.60;;;10.00;88.10;;;;;;5015840;28;20456;-80
2022/04/06 01:08:01;;;;;;;11.40;5.03;;;10.00;88.80;;;;;;5015524;28;20980;-80
2022/04/06 01:10:28;;;;;;;10.30;5.90;;;10.00;88.40;;;;;;5015300;28;20459;-80
2022/04/06 01:12:58;;;;;;;11.43;5.47;;;9.90;90.10;;;;;;5016093;28;20477;-81
2022/04/06 01:15:26;;;;;;;13.97;5.60;;;10.00;88.10;;;;;;5016769;28;20822;-81
2022/04/06 01:17:52;;;;;;;12.37;5.33;;;10.00;88.60;;;;;;5016463;28;20511;-83
2022/04/06 01:20:19;;;;;;;11.93;5.03;;;9.90;89.30;;;;;;5016452;28;20476;-82
2022/04/06 01:22:47;;;;;;;17.37;6.03;;;9.90;89.30;;;;;;5015971;28;20488;-81
2022/04/06 01:25:14;;;;;;;11.03;5.37;;;9.90;89.50;;;;;;5016495;28;20453;-81
2022/04/06 01:27:41;;;;;;;11.77;6.27;;;10.00;88.40;;;;;;5016481;28;20457;-82
2022/04/06 01:30:09;;;;;;;14.13;5.17;;;10.00;88.30;;;;;;5015970;28;20453;-80
2022/04/06 01:32:36;;;;;;;11.70;5.07;;;9.90;90.70;;;;;;5016480;28;20480;-81
2022/04/06 01:35:05;;;;;;;9.27;5.20;;;10.00;90.60;;;;;;5016308;28;20456;-83
2022/04/06 01:37:39;;;;;;;9.73;5.30;;;9.90;90.90;;;;;;5016862;28;20947;-81
2022/04/06 01:40:13;;;;;;;14.07;5.03;;;9.80;90.60;;;;;;5016389;28;20442;-82
2022/04/06 01:42:39;;;;;;;12.53;5.10;;;9.80;90.80;;;;;;5016517;28;20481;-83
2022/04/06 01:45:07;;;;;;;16.03;6.00;;;9.80;90.80;;;;;;5016766;28;20464;-81
2022/04/06 01:47:34;;;;;;;32.23;6.33;;;9.90;90.90;;;;;;5017244;28;20453;-81
2022/04/06 01:52:56;;;;;;;16.40;6.67;;;9.80;90.90;;;;;;4992623;28;20559;-81
2022/04/06 01:55:24;;;;;;;12.83;5.33;;;9.90;91.40;;;;;;5016930;28;20453;-81
2022/04/06 01:57:51;;;;;;;13.43;6.13;;;9.80;90.70;;;;;;5016818;28;20460;-81
2022/04/06 02:00:19;;;;;;;11.90;5.17;;;9.90;90.60;;;;;;5016208;28;20958;-81
2022/04/06 02:02:49;;;;;;;10.70;5.87;;;9.70;90.30;;;;;;5016687;28;20465;-82
2022/04/06 02:05:16;;;;;;;16.13;5.23;;;9.80;90.50;;;;;;5016901;28;20449;-82
2022/04/06 02:07:43;;;;;;;13.20;5.10;;;9.80;90.00;;;;;;5016093;28;20449;-81
2022/04/06 02:10:10;;;;;;;11.83;5.40;;;9.70;90.40;;;;;;5016275;28;20449;-81
2022/04/06 02:12:39;;;;;;;12.50;5.10;;;9.80;90.50;;;;;;5015775;28;20483;-81
2022/04/06 02:15:11;;;;;;;11.80;6.10;;;9.80;89.60;;;;;;5016702;28;20529;-81
2022/04/06 02:17:39;;;;;;;13.13;4.83;;;9.70;90.10;;;;;;5016130;28;20457;-81
2022/04/06 02:20:07;;;;;;;7.87;4.80;;;9.60;90.30;;;;;;5016104;28;20455;-81
2022/04/06 02:22:33;;;;;;;8.83;4.57;;;9.70;90.00;;;;;;5016674;28;20953;-81
2022/04/06 02:25:00;;;;;;;15.00;5.70;;;9.80;90.10;;;;;;5016028;28;20457;-82
2022/04/06 02:27:27;;;;;;;10.50;5.20;;;9.80;90.40;;;;;;5016009;28;20457;-82
2022/04/06 02:29:55;;;;;;;10.40;6.23;;;9.70;90.30;;;;;;5016283;28;20454;-82
2022/04/06 02:32:22;;;;;;;9.07;5.50;;;9.60;89.40;;;;;;5020224;28;20469;-81
2022/04/06 02:34:48;;;;;;;9.10;4.90;;;9.80;90.10;;;;;;5019904;28;20464;-82
2022/04/06 02:37:15;;;;;;;14.03;5.10;;;9.70;89.20;;;;;;5020281;28;20464;-81
2022/04/06 02:39:42;;;;;;;15.00;5.60;;;9.70;89.50;;;;;;5020152;28;20477;-81
2022/04/06 02:42:12;;;;;;;13.27;7.00;;;9.70;89.90;;;;;;5020036;28;20460;-82
2022/04/06 02:44:39;;;;;;;16.57;5.37;;;9.70;90.00;;;;;;5019916;28;20477;-82
2022/04/06 02:47:07;;;;;;;9.57;5.00;;;9.60;89.60;;;;;;5019769;28;20485;-81
2022/04/06 02:49:34;;;;;;;8.70;5.57;;;9.70;89.20;;;;;;5019181;28;20468;-81
2022/04/06 02:52:01;;;;;;;11.80;5.30;;;9.60;90.00;;;;;;5018476;28;20480;-81
2022/04/06 02:54:27;;;;;;;10.43;5.37;;;9.70;89.00;;;;;;5019148;28;20473;-81
2022/04/06 02:56:54;;;;;;;10.47;4.93;;;9.80;89.00;;;;;;5019356;28;20456;-81
2022/04/06 02:59:21;;;;;;;13.80;5.17;;;9.70;89.70;;;;;;5019257;28;20977;-81
2022/04/06 03:01:48;;;;;;;15.77;6.73;;;9.80;89.30;;;;;;5020115;28;20460;-81
2022/04/06 03:04:16;;;;;;;14.73;7.10;;;9.70;88.80;;;;;;5019403;28;20480;-82
2022/04/06 03:06:43;;;;;;;13.97;6.33;;;9.70;89.40;;;;;;5019647;28;21841;-80
2022/04/06 03:09:12;;;;;;;11.43;6.47;;;9.70;89.60;;;;;;5025792;28;20453;-82
2022/04/06 03:11:39;;;;;;;13.00;6.70;;;9.70;90.00;;;;;;5021896;28;20473;-81
2022/04/06 03:14:12;;;;;;;11.60;6.57;;;9.60;89.70;;;;;;5020812;28;20469;-82
2022/04/06 03:16:39;;;;;;;9.73;6.17;;;9.50;90.10;;;;;;5020699;28;20437;-82
2022/04/06 03:19:06;;;;;;;11.00;6.40;;;9.50;89.20;;;;;;5020757;28;20457;-83
2022/04/06 03:21:34;;;;;;;17.70;6.67;;;9.50;90.00;;;;;;5020809;28;20929;-81
2022/04/06 03:24:01;;;;;;;12.53;6.63;;;9.60;89.50;;;;;;5019030;28;20484;-83
2022/04/06 03:26:27;;;;;;;10.63;6.53;;;9.70;90.00;;;;;;5019904;28;20457;-82
2022/04/06 03:28:54;;;;;;;14.30;6.87;;;9.60;90.00;;;;;;5019679;28;20449;-81
2022/04/06 03:31:21;;;;;;;12.53;6.07;;;9.50;90.00;;;;;;5017775;28;20480;-82
2022/04/06 03:33:47;;;;;;;14.93;6.77;;;9.60;89.40;;;;;;5019954;28;20476;-81
2022/04/06 03:36:14;;;;;;;12.90;7.20;;;9.50;89.90;;;;;;5021331;28;20836;-80
2022/04/06 03:38:42;;;;;;;12.53;6.37;;;9.60;90.00;;;;;;5019331;28;20461;-81
2022/04/06 03:41:10;;;;;;;13.67;8.23;;;9.60;88.70;;;;;;5019758;28;20457;-81
2022/04/06 03:43:37;;;;;;;10.43;6.67;;;9.60;89.70;;;;;;5019181;28;21011;-82
2022/04/06 03:46:07;;;;;;;17.07;7.20;;;9.60;89.50;;;;;;5019986;28;20460;-81
2022/04/06 03:48:33;;;;;;;11.63;7.07;;;9.50;88.20;;;;;;5018851;28;20552;-82
2022/04/06 03:51:00;;;;;;;13.63;6.43;;;9.50;88.30;;;;;;5019127;28;20449;-82
2022/04/06 03:53:27;;;;;;;12.90;6.30;;;9.50;87.40;;;;;;5019278;28;20520;-82
2022/04/06 03:55:55;;;;;;;19.57;7.20;;;9.60;86.70;;;;;;5018827;28;20449;-83
2022/04/06 03:58:22;;;;;;;16.13;5.83;;;9.50;87.40;;;;;;5018314;28;20449;-81
2022/04/06 04:01:00;;;;;;;11.80;5.33;;;9.60;86.10;;;;;;5019730;28;20450;-84
2022/04/06 04:03:27;;;;;;;10.80;5.33;;;9.60;86.00;;;;;;5017766;28;20844;-82
2022/04/06 04:05:56;;;;;;;15.60;5.70;;;9.60;85.50;;;;;;5019998;28;20453;-82
2022/04/06 04:08:23;;;;;;;9.40;5.60;;;9.50;85.60;;;;;;5024226;28;20491;-81
2022/04/06 04:10:50;;;;;;;19.00;6.43;;;9.70;85.40;;;;;;5025330;28;20453;-82
2022/04/06 04:13:18;;;;;;;12.90;5.57;;;9.60;85.40;;;;;;5023404;28;20491;-81
2022/04/06 04:15:45;;;;;;;15.20;6.47;;;9.60;83.50;;;;;;5023288;28;20536;-81
2022/04/06 04:18:12;;;;;;;7.90;4.70;;;9.50;83.60;;;;;;5019224;28;20464;-82
2022/04/06 04:20:41;;;;;;;14.63;5.87;;;9.50;84.00;;;;;;5019806;28;20460;-82
2022/04/06 04:23:08;;;;;;;16.77;6.00;;;9.50;83.30;;;;;;5042999;23;20477;-85
2022/04/06 04:25:35;;;;;;;10.47;5.20;;;9.50;83.20;;;;;;5035365;28;20463;-84
2022/04/06 04:28:08;;;;;;;18.23;5.97;;;9.50;83.30;;;;;;5023987;28;20445;-84
2022/04/06 04:30:38;;;;;;;8.20;5.17;;;9.50;82.90;;;;;;5040856;28;20476;-84
2022/04/06 04:33:05;;;;;;;10.43;5.10;;;9.60;82.80;;;;;;5040480;28;20468;-84
2022/04/06 04:35:39;;;;;;;7.27;4.80;;;9.50;82.60;;;;;;5041910;28;20484;-85
2022/04/06 04:38:11;;;;;;;14.03;4.27;;;9.40;82.40;;;;;;5007740;28;20484;-85
2022/04/06 04:40:38;;;;;;;10.77;5.00;;;9.50;82.10;;;;;;5021202;28;20800;-84
2022/04/06 04:43:04;;;;;;;8.27;4.77;;;9.40;82.80;;;;;;5023519;28;20948;-84
2022/04/06 04:45:31;;;;;;;12.10;5.37;;;9.40;82.90;;;;;;5032465;28;20456;-85
2022/04/06 04:47:59;;;;;;;10.30;5.20;;;9.30;83.60;;;;;;5022311;28;20457;-84
2022/04/06 04:50:26;;;;;;;9.40;5.10;;;9.40;83.60;;;;;;4999923;28;20450;-85
2022/04/06 04:52:53;;;;;;;11.87;5.23;;;9.30;84.30;;;;;;5022762;28;21084;-85
2022/04/06 04:55:20;;;;;;;10.10;5.73;;;9.40;83.30;;;;;;5024970;28;20472;-85
2022/04/06 04:57:47;;;;;;;9.63;5.60;;;9.40;84.10;;;;;;5035282;28;20456;-84
2022/04/06 05:00:15;;;;;;;12.87;6.07;;;9.40;83.70;;;;;;5029288;28;20448;-84
2022/04/06 05:02:41;;;;;;;13.23;5.23;;;9.50;83.80;;;;;;5006220;28;20975;-85
2022/04/06 05:05:11;;;;;;;14.07;5.93;;;9.30;83.60;;;;;;5033869;28;20501;-85
2022/04/06 05:07:38;;;;;;;15.60;6.70;;;9.30;84.10;;;;;;5029766;28;20448;-85
2022/04/06 05:10:06;;;;;;;10.70;4.93;;;9.40;83.80;;;;;;5028405;28;20962;-85
2022/04/06 05:12:33;;;;;;;9.10;4.90;;;9.40;83.60;;;;;;5027768;28;20468;-84
2022/04/06 05:15:00;;;;;;;10.17;6.30;;;9.40;83.70;;;;;;5021737;28;20485;-84
2022/04/06 05:17:27;;;;;;;17.53;6.70;;;9.70;83.90;;;;;;5027277;28;20832;-84
2022/04/06 05:19:54;;;;;;;9.80;5.80;;;9.40;84.10;;;;;;5037206;28;20839;-85
2022/04/06 05:22:22;;;;;;;18.60;6.20;;;9.50;84.10;;;;;;5026406;28;20450;-84
2022/04/06 05:24:50;;;;;;;10.80;5.80;;;9.50;85.00;;;;;;5020896;28;20840;-85
2022/04/06 05:27:17;;;;;;;7.63;5.37;;;9.50;84.50;;;;;;5019744;28;20512;-86
2022/04/06 05:29:43;;;;;;;18.80;6.13;;;9.40;84.50;;;;;;5021701;28;20457;-86
2022/04/06 05:32:10;;;;;;;13.77;5.33;;;9.40;85.00;;;;;;5029863;28;20473;-85
2022/04/06 05:34:37;;;;;;;11.83;6.80;;;9.60;84.90;;;;;;5020985;28;20469;-85
2022/04/06 05:37:05;;;;;;;10.77;5.00;;;9.50;85.20;;;;;;5016773;28;20457;-85
2022/04/06 05:39:33;;;;;;;12.27;6.70;;;9.40;84.60;;;;;;5017209;28;20465;-85
2022/04/06 05:41:59;;;;;;;12.77;6.60;;;9.50;85.00;;;;;;5017560;28;20839;-84
2022/04/06 05:44:26;;;;;;;16.77;6.97;;;9.40;83.40;;;;;;5022054;28;20468;-86
2022/04/06 05:46:53;;;;;;;10.00;4.67;;;9.60;82.80;;;;;;5023117;28;20457;-86
2022/04/06 05:49:19;;;;;;;15.73;8.17;;;9.50;82.90;;;;;;5016466;28;20456;-84
2022/04/06 05:51:46;;;;;;;12.10;5.20;;;9.60;83.30;;;;;;5023034;28;20449;-83
2022/04/06 05:54:13;;;;;;;12.20;6.37;;;9.80;83.00;;;;;;5021604;28;20500;-84
2022/04/06 05:56:41;;;;;;;6.47;3.60;;;9.60;83.20;;;;;;5014932;28;20460;-84
2022/04/06 05:59:08;;;;;;;10.53;4.63;;;9.70;82.60;;;;;;5016502;28;20453;-84
2022/04/06 06:01:34;;;;;;;12.07;4.57;;;9.60;81.80;;;;;;5026759;28;20455;-85
2022/04/06 06:04:01;;;;;;;11.23;3.87;;;9.60;82.00;;;;;;5026078;28;20465;-84
2022/04/06 06:06:28;;;;;;;8.23;3.90;;;9.70;81.30;;;;;;5019919;28;20456;-84
2022/04/06 06:08:55;;;;;;;8.93;3.90;;;9.60;82.20;;;;;;5010995;28;20487;-84
2022/04/06 06:11:21;;;;;;;7.83;3.93;;;9.70;81.80;;;;;;5025261;28;20460;-85
2022/04/06 06:13:49;;;;;;;7.50;3.40;;;9.60;82.00;;;;;;5024944;28;20488;-85
2022/04/06 06:16:16;;;;;;;15.60;4.30;;;9.50;80.90;;;;;;5027884;28;20449;-84
2022/04/06 06:18:43;;;;;;;12.00;3.87;;;9.60;81.30;;;;;;5025201;28;20464;-84
2022/04/06 06:21:10;;;;;;;12.23;4.00;;;9.60;82.50;;;;;;5034028;28;20861;-85
2022/04/06 06:23:37;;;;;;;10.23;4.40;;;9.70;81.90;;;;;;5022254;28;20485;-84
2022/04/06 06:26:04;;;;;;;10.70;3.80;;;9.70;81.20;;;;;;5022403;28;20452;-85
2022/04/06 06:28:31;;;;;;;13.03;3.60;;;9.60;79.50;;;;;;5028956;28;20520;-85
2022/04/06 06:30:59;;;;;;;10.70;3.60;;;9.60;79.00;;;;;;5023268;28;20464;-86
2022/04/06 06:33:26;;;;;;;10.90;4.07;;;9.70;78.70;;;;;;5030088;28;20490;-85
2022/04/06 06:35:52;;;;;;;8.73;3.90;;;9.70;78.30;;;;;;5023228;28;20449;-85
2022/04/06 06:38:19;;;;;;;14.60;5.60;;;9.70;80.00;;;;;;5020716;28;20826;-84
2022/04/06 06:40:47;;;;;;;10.20;4.13;;;9.90;79.10;;;;;;5028588;28;20464;-84
2022/04/06 06:43:13;;;;;;;12.70;3.40;;;9.90;78.60;;;;;;5024744;28;20480;-84
2022/04/06 06:45:40;;;;;;;10.03;3.27;;;10.00;76.90;;;;;;5031078;28;20455;-83
2022/04/06 06:48:09;;;;;;;11.50;3.77;;;10.10;77.00;;;;;;5025089;28;20456;-84
2022/04/06 06:50:36;;;;;;;7.63;4.00;;;10.00;76.90;;;;;;5025481;28;20453;-84
2022/04/06 06:53:03;;;;;;;9.50;4.07;;;10.10;76.30;;;;;;5027151;28;20920;-84
2022/04/06 06:55:29;;;;;;;10.50;3.80;;;10.10;75.60;;;;;;5028344;28;20453;-83
2022/04/06 06:57:56;;;;;;;11.90;7.93;;;10.10;75.20;;;;;;5031036;28;20964;-84
2022/04/06 07:00:23;;;;;;;9.10;8.10;;;10.10;76.00;;;;;;5025268;28;20453;-84
2022/04/06 07:02:50;;;;;;;12.83;6.90;;;10.10;77.00;;;;;;5017906;28;20870;-84
2022/04/06 07:05:18;;;;;;;15.60;5.97;;;10.00;74.80;;;;;;5022945;28;20476;-84
2022/04/06 07:07:49;;;;;;;9.47;6.17;;;10.10;74.60;;;;;;5024088;28;20480;-85
2022/04/06 07:10:16;;;;;;;12.67;5.60;;;10.20;75.70;;;;;;5025755;28;20457;-84
2022/04/06 07:12:43;;;;;;;8.03;6.60;;;10.00;75.70;;;;;;5020175;28;20472;-84
2022/04/06 07:15:10;;;;;;;13.20;6.80;;;10.40;76.40;;;;;;5027875;28;20494;-86
2022/04/06 07:17:37;;;;;;;12.23;4.27;;;10.20;76.50;;;;;;5038967;28;20457;-84
2022/04/06 07:20:04;;;;;;;14.17;4.50;;;10.30;74.80;;;;;;5023909;28;20468;-84
2022/04/06 07:22:33;;;;;;;9.70;5.10;;;10.30;74.50;;;;;;5023736;28;20457;-85
2022/04/06 07:24:59;;;;;;;11.87;6.40;;;10.60;75.10;;;;;;5022685;28;21083;-84
2022/04/06 07:27:26;;;;;;;8.33;4.27;;;10.50;72.80;;;;;;5022566;28;20453;-85
2022/04/06 07:29:53;;;;;;;10.03;4.40;;;10.40;72.10;;;;;;5032731;28;20456;-84
2022/04/06 07:32:20;;;;;;;9.87;5.13;;;10.40;72.60;;;;;;5027397;28;20507;-84
2022/04/06 07:34:46;;;;;;;14.83;5.57;;;10.50;74.60;;;;;;5028656;28;20472;-84
2022/04/06 07:37:13;;;;;;;7.17;2.80;;;10.40;72.00;;;;;;5038572;28;20445;-84
2022/04/06 07:39:42;;;;;;;9.03;4.37;;;10.40;72.30;;;;;;5027826;28;20471;-84
2022/04/06 07:42:09;;;;;;;8.20;3.20;;;10.40;72.00;;;;;;5040503;28;20457;-84
2022/04/06 07:44:36;;;;;;;6.93;2.93;;;10.50;73.20;;;;;;5022003;28;20819;-84
2022/04/06 07:47:03;;;;;;;12.00;6.10;;;10.40;71.60;;;;;;5020506;28;20453;-84
2022/04/06 07:49:30;;;;;;;9.97;4.17;;;10.40;73.90;;;;;;5033303;28;20456;-84
2022/04/06 07:51:56;;;;;;;9.50;3.57;;;10.40;73.00;;;;;;5032598;28;20461;-83
2022/04/06 07:54:23;;;;;;;10.73;4.40;;;10.40;72.70;;;;;;5027740;28;20480;-84
2022/04/06 07:56:51;;;;;;;10.57;3.50;;;10.30;71.30;;;;;;5038533;28;20459;-84
2022/04/06 07:59:18;;;;;;;7.43;3.07;;;10.40;72.90;;;;;;4999441;28;20458;-84
2022/04/06 08:01:45;;;;;;;6.63;2.67;;;10.50;72.60;;;;;;5011605;28;20456;-83
2022/04/06 08:04:11;;;;;;;7.20;2.60;;;10.40;71.20;;;;;;5028890;28;20842;-83
2022/04/06 08:06:38;;;;;;;9.67;3.17;;;10.30;71.30;;;;;;5038049;28;20467;-82
2022/04/06 08:09:06;;;;;;;6.17;2.70;;;10.40;70.40;;;;;;5026301;28;20449;-84
2022/04/06 08:11:33;;;;;;;6.27;3.37;;;10.40;69.40;;;;;;5026786;28;20503;-83
2022/04/06 08:14:01;;;;;;;13.33;3.73;;;10.40;68.20;;;;;;5038619;28;20507;-84
2022/04/06 08:16:28;;;;;;;9.80;6.93;;;10.60;69.50;;;;;;5028995;28;20453;-83
2022/04/06 08:18:55;;;;;;;6.90;4.60;;;10.50;68.40;;;;;;5022637;28;20520;-83
2022/04/06 08:21:22;;;;;;;9.37;2.67;;;10.50;68.00;;;;;;5029217;28;20856;-84
2022/04/06 08:23:48;;;;;;;8.20;4.50;;;10.60;64.90;;;;;;5020911;28;20472;-83
2022/04/06 08:26:15;;;;;;;12.03;5.50;;;10.40;64.50;;;;;;5024551;28;20460;-84
2022/04/06 08:28:42;;;;;;;8.83;5.27;;;10.30;65.20;;;;;;5028580;28;20958;-83
2022/04/06 08:31:11;;;;;;;8.07;5.40;;;10.50;65.30;;;;;;5016324;28;20464;-82
2022/04/06 08:33:38;;;;;;;12.23;4.50;;;10.40;65.20;;;;;;5028306;28;20615;-83
2022/04/06 08:36:06;;;;;;;9.63;3.10;;;10.50;65.70;;;;;;5031612;28;20484;-83
2022/04/06 08:38:33;;;;;;;8.57;2.80;;;10.60;65.10;;;;;;5034585;28;20452;-83
2022/04/06 08:40:59;;;;;;;7.80;2.60;;;10.60;63.10;;;;;;5023161;28;20457;-84
2022/04/06 08:43:26;;;;;;;9.57;3.10;;;10.50;62.80;;;;;;5023681;28;20472;-82
2022/04/06 08:45:55;;;;;;;7.40;2.60;;;10.60;61.60;;;;;;5017238;28;20453;-83
2022/04/06 08:48:29;;;;;;;9.97;2.43;;;10.80;61.70;;;;;;5034632;28;20480;-86
2022/04/06 08:50:59;;;;;;;9.10;3.27;;;10.70;60.80;;;;;;5039448;28;20452;-86
2022/04/06 08:53:25;;;;;;;8.07;3.37;;;10.70;60.20;;;;;;5020626;28;21001;-86
2022/04/06 08:55:52;;;;;;;8.03;2.10;;;10.90;58.60;;;;;;5021757;28;20457;-86
2022/04/06 08:58:19;;;;;;;7.37;2.50;;;10.90;57.60;;;;;;5036018;28;20464;-86
2022/04/06 09:00:46;;;;;;;10.30;2.60;;;11.00;57.70;;;;;;5032272;28;20477;-86
2022/04/06 09:03:14;;;;;;;8.27;2.53;;;11.40;56.30;;;;;;5022373;28;20457;-86
2022/04/06 09:05:42;;;;;;;15.23;4.03;;;11.70;55.90;;;;;;5032382;28;20875;-86
2022/04/06 09:08:09;;;;;;;8.20;3.00;;;12.00;55.90;;;;;;5038770;28;21094;-86
2022/04/06 09:10:38;;;;;;;7.93;2.50;;;12.30;53.40;;;;;;5021452;28;20460;-84
2022/04/06 09:13:13;;;;;;;7.63;2.37;;;12.40;53.50;;;;;;5030304;28;20455;-86
2022/04/06 09:15:40;;;;;;;13.90;2.63;;;12.60;51.10;;;;;;5031401;28;20463;-86
2022/04/06 09:18:07;;;;;;;7.57;2.40;;;12.80;50.70;;;;;;5019729;28;20455;-85
2022/04/06 09:20:34;;;;;;;9.57;3.57;;;12.80;47.90;;;;;;5029285;28;20448;-86
2022/04/06 09:23:03;;;;;;;9.87;3.03;;;12.80;48.60;;;;;;5038675;28;20460;-85
2022/04/06 09:25:35;;;;;;;6.07;2.03;;;13.00;49.00;;;;;;5023695;28;20513;-86
2022/04/06 09:28:08;;;;;;;8.40;2.40;;;13.20;46.90;;;;;;5024627;28;20511;-86
2022/04/06 09:30:38;;;;;;;6.67;3.10;;;13.30;49.50;;;;;;5018155;28;20478;-85
2022/04/06 09:33:05;;;;;;;9.80;2.13;;;13.30;47.00;;;;;;5023529;28;20447;-85
2022/04/06 09:35:34;;;;;;;6.67;1.93;;;13.20;45.70;;;;;;5039074;28;20449;-83
2022/04/06 09:38:12;;;;;;;6.10;2.40;;;13.40;43.50;;;;;;5038245;28;20444;-86
2022/04/06 09:40:39;;;;;;;7.30;2.40;;;13.40;45.60;;;;;;5042545;28;20451;-86
2022/04/06 09:43:07;;;;;;;8.70;2.30;;;13.30;45.00;;;;;;5023221;28;20511;-86
2022/04/06 09:48:18;;;;;;;11.53;2.60;;;12.90;45.50;;;;;;5016409;28;21011;-82
2022/04/06 09:50:54;;;;;;;6.50;2.37;;;12.60;46.30;;;;;;5024771;28;20960;-82
2022/04/06 09:53:27;;;;;;;8.07;3.10;;;12.40;45.90;;;;;;5031699;28;20519;-82
2022/04/06 09:55:55;;;;;;;7.93;2.10;;;12.10;48.00;;;;;;5017266;28;20536;-82
2022/04/06 09:58:23;;;;;;;10.00;2.83;;;12.10;49.90;;;;;;5017097;28;20449;-82
2022/04/06 10:00:51;;;;;;;10.10;2.80;;;11.90;48.30;;;;;;5036485;28;20453;-82
2022/04/06 10:03:20;;;;;;;9.10;3.63;;;12.00;48.30;;;;;;5033189;28;20453;-82
2022/04/06 10:05:49;;;;;;;7.30;2.90;;;12.10;48.50;;;;;;5016435;28;20453;-81
2022/04/06 10:08:17;;;;;;;8.97;2.80;;;12.00;48.00;;;;;;5026515;28;20486;-82
2022/04/06 10:10:47;;;;;;;8.67;4.60;;;12.20;50.80;;;;;;5038292;28;20466;-82
2022/04/06 10:13:14;;;;;;;5.80;3.30;;;12.20;52.10;;;;;;5034356;28;20448;-81
2022/04/06 10:15:42;;;;;;;4.77;2.37;;;12.00;48.60;;;;;;5036853;28;20456;-81
2022/04/06 10:18:09;;;;;;;9.80;3.57;;;11.90;48.80;;;;;;5022368;28;20449;-79
2022/04/06 10:20:42;;;;;;;9.23;4.70;;;11.70;49.80;;;;;;5016941;28;20449;-82
2022/04/06 10:23:14;;;;;;;13.50;3.57;;;12.10;51.80;;;;;;5030760;28;20444;-83
2022/04/06 10:25:51;;;;;;;7.60;3.07;;;12.10;51.30;;;;;;5054947;23;20492;-82
2022/04/06 10:28:19;;;;;;;6.43;3.07;;;12.10;51.20;;;;;;5018239;28;20452;-82
2022/04/06 10:31:19;;;;;;;6.53;2.53;;;12.10;51.10;;;;;;5019379;28;20875;-84
2022/04/06 10:33:46;;;;;;;6.10;2.40;;;12.00;50.80;;;;;;5020145;28;20473;-82
2022/04/06 10:36:18;;;;;;;6.27;3.70;;;12.00;50.80;;;;;;5015055;28;20842;-82
2022/04/06 10:39:11;;;;;;;8.53;3.03;;;12.10;53.20;;;;;;5013894;28;20597;-80
2022/04/06 10:41:41;;;;;;;10.17;7.00;;;12.20;52.40;;;;;;5015193;28;20984;-82
2022/04/06 10:44:08;;;;;;;7.20;2.57;;;12.30;51.70;;;;;;5015196;28;20852;-81
2022/04/06 10:46:38;;;;;;;5.97;2.23;;;12.30;51.30;;;;;;5015774;28;20452;-82
2022/04/06 10:49:16;;;;;;;7.20;4.73;;;12.20;49.70;;;;;;5015166;28;20863;-83
2022/04/06 10:51:45;;;;;;;7.97;2.50;;;12.50;50.60;;;;;;5016006;28;20456;-82
2022/04/06 10:54:43;;;;;;;9.13;3.93;;;12.80;48.90;;;;;;5019125;28;20488;-82
2022/04/06 10:57:11;;;;;;;7.87;2.90;;;13.10;48.20;;;;;;4958345;29;20451;-82
2022/04/06 10:59:38;;;;;;;9.93;3.10;;;13.30;49.60;;;;;;5005048;28;20981;-82
2022/04/06 11:02:23;;;;;;;7.93;2.03;;;12.90;47.60;;;;;;5019386;28;20456;-82
2022/04/06 11:04:52;;;;;;;6.57;1.93;;;12.90;48.80;;;;;;5019379;28;21012;-82
2022/04/06 11:10:06;;;;;;;7.53;2.07;;;12.90;47.70;;;;;;5019337;28;20496;-82
2022/04/06 11:10:16;;;;;;;6.03;2.23;;;13.00;47.80;;;;;;5018678;28;20487;-81
2022/04/06 11:13:06;;;;;;;7.47;2.00;;;13.60;48.10;;;;;;5021654;28;20453;-82
2022/04/06 11:15:38;;;;;;;5.50;1.60;;;14.10;47.70;;;;;;5019294;28;20484;-82
2022/04/06 11:18:38;;;;;;;5.83;2.10;;;14.70;44.70;;;;;;5018853;28;20887;-84
2022/04/06 11:21:06;;;;;;;7.40;2.23;;;15.70;39.30;;;;;;5018683;28;20452;-82
2022/04/06 11:23:32;;;;;;;7.00;2.50;;;15.90;40.50;;;;;;5018771;28;20453;-83
2022/04/06 11:26:00;;;;;;;6.10;2.20;;;15.30;39.10;;;;;;5019064;28;20489;-82
2022/04/06 11:28:29;;;;;;;8.50;2.67;;;15.30;40.00;;;;;;5018109;28;20482;-82
2022/04/06 11:30:56;;;;;;;6.33;2.30;;;14.90;39.60;;;;;;5019339;28;20453;-82
2022/04/06 11:33:23;;;;;;;7.17;2.37;;;15.00;41.70;;;;;;5019218;28;20460;-82
2022/04/06 11:35:50;;;;;;;7.33;3.07;;;14.80;40.10;;;;;;5019432;28;20510;-82
2022/04/06 11:38:17;;;;;;;6.47;2.37;;;14.70;39.80;;;;;;5018414;28;20661;-80
2022/04/06 11:40:44;;;;;;;10.57;2.13;;;14.40;40.60;;;;;;5018945;28;20454;-82
2022/04/06 11:43:10;;;;;;;8.20;2.13;;;14.40;42.40;;;;;;5019074;28;20458;-82
2022/04/06 11:45:41;;;;;;;5.07;1.40;;;13.90;41.20;;;;;;5018469;28;20509;-82
2022/04/06 11:48:11;;;;;;;10.13;2.13;;;13.70;43.20;;;;;;5017528;28;20482;-79
2022/04/06 11:50:40;;;;;;;7.63;2.30;;;13.70;46.20;;;;;;5017595;28;20464;-83
2022/04/06 11:53:08;;;;;;;7.40;2.50;;;13.60;44.80;;;;;;5018196;28;20461;-82
2022/04/06 11:55:47;;;;;;;10.70;1.87;;;13.60;45.50;;;;;;5017743;28;20487;-82
2022/04/06 11:58:28;;;;;;;4.50;2.10;;;13.80;45.10;;;;;;5017296;28;20483;-83
2022/04/06 12:01:00;;;;;;;7.63;1.90;;;13.70;44.40;;;;;;5018699;28;20511;-82
2022/04/06 12:03:28;;;;;;;6.07;1.83;;;13.40;45.40;;;;;;5017973;28;20458;-83
2022/04/06 12:05:55;;;;;;;11.33;2.00;;;13.20;45.70;;;;;;5017721;28;20473;-82
2022/04/06 12:08:23;;;;;;;6.27;2.30;;;13.20;45.50;;;;;;5016985;28;20457;-82
2022/04/06 12:10:50;;;;;;;7.53;1.93;;;13.10;45.70;;;;;;5017832;28;20450;-83
2022/04/06 12:13:17;;;;;;;5.60;1.80;;;13.30;43.90;;;;;;5018143;28;20449;-82
2022/04/06 12:15:45;;;;;;;4.93;1.50;;;13.30;43.60;;;;;;5017482;28;20505;-82
2022/04/06 12:18:13;;;;;;;9.40;2.03;;;13.40;45.40;;;;;;5016291;28;20461;-83
2022/04/06 12:20:40;;;;;;;5.17;1.40;;;13.70;42.80;;;;;;5018243;28;20464;-81
2022/04/06 12:23:09;;;;;;;10.90;2.13;;;13.40;42.70;;;;;;5017158;28;20453;-81
2022/04/06 12:25:37;;;;;;;6.67;1.90;;;13.50;42.10;;;;;;5017279;28;20613;-81
2022/04/06 12:28:17;;;;;;;7.60;1.90;;;13.60;42.50;;;;;;5017595;28;20476;-81
2022/04/06 12:30:55;;;;;;;7.40;1.87;;;13.20;46.50;;;;;;5017585;28;20471;-81
2022/04/06 12:33:38;;;;;;;5.20;2.20;;;13.10;44.40;;;;;;5018138;28;20453;-80
2022/04/06 12:36:10;;;;;;;7.33;2.40;;;13.40;47.10;;;;;;5024197;28;20555;-80
2022/04/06 12:38:39;;;;;;;7.00;2.40;;;13.70;44.90;;;;;;5023452;28;20453;-81
2022/04/06 12:41:07;;;;;;;7.83;2.63;;;13.40;43.70;;;;;;5019960;28;20450;-79
2022/04/06 12:43:37;;;;;;;5.77;2.10;;;13.50;41.30;;;;;;5021617;28;20453;-83
2022/04/06 12:46:04;;;;;;;8.30;1.90;;;13.80;43.10;;;;;;5016141;28;20446;-80
2022/04/06 12:48:30;;;;;;;7.30;2.63;;;13.60;40.00;;;;;;5015275;28;21035;-82
2022/04/06 12:50:59;;;;;;;7.17;2.13;;;13.80;42.40;;;;;;5015952;28;20468;-79
2022/04/06 12:53:26;;;;;;;7.00;2.73;;;13.70;42.00;;;;;;5015714;28;20841;-81
2022/04/06 12:56:11;;;;;;;8.07;2.40;;;13.80;42.00;;;;;;5014851;28;20482;-81
2022/04/06 12:58:38;;;;;;;7.63;2.40;;;13.70;40.60;;;;;;5015565;28;20449;-82